Terminal Aerodrome Forecast
Issued by NWS

Home | Current Version | Previous Version | Text Only | Print | Product List | Glossary On
Versions: 1 2 3 4 5 6 7 8 9 10 11 12 13 14 15 16 17
000
FTUS45 KFGZ 220847 AAA
TAFSEZ
TAF AMD
KSEZ 220847Z 2209/2306 03008KT P6SM SCT090 BKN120
      TEMPO 2209/2211 VRB08G17KT -TSRA BKN080CB
     FM221500 VRB05KT P6SM BKN090 PROB30 2219/2301 VRB15G30KT TSRA
      BKN070CB=

USA.gov is the U.S. government's official web portal to all federal, state and local government web resources and services.